sensor_id;sensor_type;location;lat;lon;timestamp;P1;durP1;ratioP1;P2;durP2;ratioP2
20306;SDS011;10312;52.434;13.206;2024-03-23T00:54:30;10.05;;;2.08;;
20306;SDS011;10312;52.434;13.206;2024-03-23T00:56:56;16.85;;;4.15;;
20306;SDS011;10312;52.434;13.206;2024-03-23T00:59:22;14.30;;;2.80;;
20306;SDS011;10312;52.434;13.206;2024-03-23T01:01:52;9.60;;;2.78;;
20306;SDS011;10312;52.434;13.206;2024-03-23T01:04:18;15.18;;;2.70;;
20306;SDS011;10312;52.434;13.206;2024-03-23T01:06:43;9.90;;;2.40;;
20306;SDS011;10312;52.434;13.206;2024-03-23T01:09:09;10.35;;;2.28;;
20306;SDS011;10312;52.434;13.206;2024-03-23T01:11:36;14.82;;;2.33;;
20306;SDS011;10312;52.434;13.206;2024-03-23T01:14:02;11.00;;;2.47;;
20306;SDS011;10312;52.434;13.206;2024-03-23T01:16:28;14.18;;;2.40;;
20306;SDS011;10312;52.434;13.206;2024-03-23T01:18:54;16.60;;;3.55;;
20306;SDS011;10312;52.434;13.206;2024-03-23T01:21:20;14.07;;;2.65;;
20306;SDS011;10312;52.434;13.206;2024-03-23T01:23:46;12.57;;;2.55;;
20306;SDS011;10312;52.434;13.206;2024-03-23T01:26:12;14.45;;;2.97;;
20306;SDS011;10312;52.434;13.206;2024-03-23T01:28:42;12.77;;;2.10;;
20306;SDS011;10312;52.434;13.206;2024-03-23T01:31:14;8.25;;;2.40;;
20306;SDS011;10312;52.434;13.206;2024-03-23T01:33:41;10.35;;;2.25;;
20306;SDS011;10312;52.434;13.206;2024-03-23T01:36:06;7.07;;;1.52;;
20306;SDS011;10312;52.434;13.206;2024-03-23T01:38:32;12.40;;;1.88;;
20306;SDS011;10312;52.434;13.206;2024-03-23T01:40:59;13.18;;;2.33;;
20306;SDS011;10312;52.434;13.206;2024-03-23T01:43:25;9.32;;;2.15;;
20306;SDS011;10312;52.434;13.206;2024-03-23T01:45:50;11.15;;;2.40;;
20306;SDS011;10312;52.434;13.206;2024-03-23T01:48:19;10.30;;;1.80;;
20306;SDS011;10312;52.434;13.206;2024-03-23T01:50:46;14.23;;;2.50;;
20306;SDS011;10312;52.434;13.206;2024-03-23T01:53:11;11.82;;;2.30;;
20306;SDS011;10312;52.434;13.206;2024-03-23T01:55:37;13.68;;;2.28;;
20306;SDS011;10312;52.434;13.206;2024-03-23T01:58:05;12.80;;;2.40;;
20306;SDS011;10312;52.434;13.206;2024-03-23T02:00:32;15.35;;;2.78;;
20306;SDS011;10312;52.434;13.206;2024-03-23T02:02:57;14.88;;;2.53;;
20306;SDS011;10312;52.434;13.206;2024-03-23T02:05:23;16.20;;;3.17;;
20306;SDS011;10312;52.434;13.206;2024-03-23T02:07:49;9.48;;;2.17;;
20306;SDS011;10312;52.434;13.206;2024-03-23T02:10:16;10.20;;;1.95;;
20306;SDS011;10312;52.434;13.206;2024-03-23T02:12:44;16.73;;;3.03;;
20306;SDS011;10312;52.434;13.206;2024-03-23T02:15:10;12.48;;;2.28;;
20306;SDS011;10312;52.434;13.206;2024-03-23T02:17:36;6.88;;;2.17;;
20306;SDS011;10312;52.434;13.206;2024-03-23T02:20:02;12.40;;;2.58;;
20306;SDS011;10312;52.434;13.206;2024-03-23T02:22:37;11.73;;;2.13;;
20306;SDS011;10312;52.434;13.206;2024-03-23T02:25:04;10.80;;;2.15;;
20306;SDS011;10312;52.434;13.206;2024-03-23T02:27:30;13.00;;;2.35;;
20306;SDS011;10312;52.434;13.206;2024-03-23T02:29:56;10.50;;;1.65;;
20306;SDS011;10312;52.434;13.206;2024-03-23T02:32:21;11.77;;;2.00;;
20306;SDS011;10312;52.434;13.206;2024-03-23T02:34:47;12.05;;;2.20;;
20306;SDS011;10312;52.434;13.206;2024-03-23T02:37:12;18.25;;;3.05;;
20306;SDS011;10312;52.434;13.206;2024-03-23T02:39:38;11.50;;;2.45;;
20306;SDS011;10312;52.434;13.206;2024-03-23T02:42:04;11.98;;;2.60;;
20306;SDS011;10312;52.434;13.206;2024-03-23T02:44:30;13.55;;;2.20;;
20306;SDS011;10312;52.434;13.206;2024-03-23T02:46:55;10.05;;;1.90;;
20306;SDS011;10312;52.434;13.206;2024-03-23T02:49:21;9.35;;;2.70;;
20306;SDS011;10312;52.434;13.206;2024-03-23T02:51:46;9.68;;;2.47;;
20306;SDS011;10312;52.434;13.206;2024-03-23T02:54:14;13.82;;;3.38;;
20306;SDS011;10312;52.434;13.206;2024-03-23T02:56:40;14.60;;;2.20;;
20306;SDS011;10312;52.434;13.206;2024-03-23T02:59:05;12.15;;;2.22;;
20306;SDS011;10312;52.434;13.206;2024-03-23T03:01:32;11.43;;;2.05;;
20306;SDS011;10312;52.434;13.206;2024-03-23T03:03:58;11.48;;;2.35;;
20306;SDS011;10312;52.434;13.206;2024-03-23T03:06:24;16.80;;;3.40;;
20306;SDS011;10312;52.434;13.206;2024-03-23T03:08:50;11.65;;;2.47;;
20306;SDS011;10312;52.434;13.206;2024-03-23T03:11:16;12.02;;;2.88;;
20306;SDS011;10312;52.434;13.206;2024-03-23T03:13:42;14.32;;;2.50;;
20306;SDS011;10312;52.434;13.206;2024-03-23T03:16:14;13.40;;;2.65;;
20306;SDS011;10312;52.434;13.206;2024-03-23T03:18:40;14.20;;;2.53;;
20306;SDS011;10312;52.434;13.206;2024-03-23T03:21:06;13.65;;;2.47;;
20306;SDS011;10312;52.434;13.206;2024-03-23T03:23:39;15.98;;;2.50;;
20306;SDS011;10312;52.434;13.206;2024-03-23T03:26:05;10.80;;;1.92;;
20306;SDS011;10312;52.434;13.206;2024-03-23T03:28:32;12.60;;;2.75;;
20306;SDS011;10312;52.434;13.206;2024-03-23T03:30:58;13.02;;;3.00;;
20306;SDS011;10312;52.434;13.206;2024-03-23T03:33:25;7.82;;;2.25;;
20306;SDS011;10312;52.434;13.206;2024-03-23T03:35:51;11.27;;;2.63;;
20306;SDS011;10312;52.434;13.206;2024-03-23T03:38:18;12.35;;;2.45;;
20306;SDS011;10312;52.434;13.206;2024-03-23T03:40:43;11.88;;;2.72;;
20306;SDS011;10312;52.434;13.206;2024-03-23T03:43:10;14.15;;;2.72;;
20306;SDS011;10312;52.434;13.206;2024-03-23T03:45:35;10.77;;;2.75;;
20306;SDS011;10312;52.434;13.206;2024-03-23T03:48:01;10.80;;;2.70;;
20306;SDS011;10312;52.434;13.206;2024-03-23T03:50:26;9.52;;;2.13;;
20306;SDS011;10312;52.434;13.206;2024-03-23T03:52:52;11.43;;;2.38;;
20306;SDS011;10312;52.434;13.206;2024-03-23T03:55:18;11.98;;;1.95;;
20306;SDS011;10312;52.434;13.206;2024-03-23T03:57:43;12.70;;;2.03;;
20306;SDS011;10312;52.434;13.206;2024-03-23T04:00:09;8.35;;;2.10;;
20306;SDS011;10312;52.434;13.206;2024-03-23T04:02:39;11.02;;;1.92;;
20306;SDS011;10312;52.434;13.206;2024-03-23T04:05:05;9.82;;;1.98;;
20306;SDS011;10312;52.434;13.206;2024-03-23T04:07:31;9.85;;;1.85;;
20306;SDS011;10312;52.434;13.206;2024-03-23T04:09:57;8.23;;;1.95;;
20306;SDS011;10312;52.434;13.206;2024-03-23T04:12:23;10.25;;;2.20;;
20306;SDS011;10312;52.434;13.206;2024-03-23T04:14:49;9.35;;;2.42;;
20306;SDS011;10312;52.434;13.206;2024-03-23T04:17:14;12.65;;;2.25;;
20306;SDS011;10312;52.434;13.206;2024-03-23T04:19:40;8.00;;;2.15;;
20306;SDS011;10312;52.434;13.206;2024-03-23T04:22:06;10.25;;;2.30;;
20306;SDS011;10312;52.434;13.206;2024-03-23T04:24:31;11.25;;;1.80;;
20306;SDS011;10312;52.434;13.206;2024-03-23T04:26:57;18.58;;;3.00;;
20306;SDS011;10312;52.434;13.206;2024-03-23T04:29:26;14.63;;;2.63;;
20306;SDS011;10312;52.434;13.206;2024-03-23T04:31:52;11.32;;;2.95;;
20306;SDS011;10312;52.434;13.206;2024-03-23T04:34:21;10.48;;;2.22;;
20306;SDS011;10312;52.434;13.206;2024-03-23T04:36:48;10.57;;;2.78;;
20306;SDS011;10312;52.434;13.206;2024-03-23T04:39:14;8.43;;;1.40;;
20306;SDS011;10312;52.434;13.206;2024-03-23T04:41:40;9.15;;;2.20;;
20306;SDS011;10312;52.434;13.206;2024-03-23T04:44:05;8.50;;;1.75;;
20306;SDS011;10312;52.434;13.206;2024-03-23T04:46:33;11.02;;;1.38;;
20306;SDS011;10312;52.434;13.206;2024-03-23T04:48:58;6.53;;;1.60;;
20306;SDS011;10312;52.434;13.206;2024-03-23T04:51:24;7.70;;;1.50;;
20306;SDS011;10312;52.434;13.206;2024-03-23T04:53:53;8.88;;;1.90;;
20306;SDS011;10312;52.434;13.206;2024-03-23T04:56:18;5.60;;;1.33;;
20306;SDS011;10312;52.434;13.206;2024-03-23T04:58:44;7.38;;;1.10;;
20306;SDS011;10312;52.434;13.206;2024-03-23T05:01:10;11.68;;;2.05;;
20306;SDS011;10312;52.434;13.206;2024-03-23T05:03:36;8.20;;;2.10;;
20306;SDS011;10312;52.434;13.206;2024-03-23T05:06:02;5.45;;;1.35;;
20306;SDS011;10312;52.434;13.206;2024-03-23T05:08:28;7.30;;;1.65;;
20306;SDS011;10312;52.434;13.206;2024-03-23T05:10:54;9.57;;;1.35;;
20306;SDS011;10312;52.434;13.206;2024-03-23T05:13:19;7.00;;;1.48;;
20306;SDS011;10312;52.434;13.206;2024-03-23T05:15:50;8.40;;;1.40;;
20306;SDS011;10312;52.434;13.206;2024-03-23T05:18:17;4.80;;;1.50;;
20306;SDS011;10312;52.434;13.206;2024-03-23T05:20:43;7.93;;;1.55;;
20306;SDS011;10312;52.434;13.206;2024-03-23T05:23:09;7.38;;;1.35;;
20306;SDS011;10312;52.434;13.206;2024-03-23T05:25:35;8.65;;;1.35;;
20306;SDS011;10312;52.434;13.206;2024-03-23T05:28:00;4.93;;;1.42;;
20306;SDS011;10312;52.434;13.206;2024-03-23T05:30:26;4.45;;;1.27;;
20306;SDS011;10312;52.434;13.206;2024-03-23T05:32:52;4.72;;;1.00;;
20306;SDS011;10312;52.434;13.206;2024-03-23T05:35:18;7.25;;;1.30;;
20306;SDS011;10312;52.434;13.206;2024-03-23T05:37:43;3.33;;;1.00;;
20306;SDS011;10312;52.434;13.206;2024-03-23T05:40:10;5.43;;;1.15;;
20306;SDS011;10312;52.434;13.206;2024-03-23T05:42:38;6.32;;;1.27;;
20306;SDS011;10312;52.434;13.206;2024-03-23T05:45:04;8.13;;;1.23;;
20306;SDS011;10312;52.434;13.206;2024-03-23T05:47:31;4.97;;;1.13;;
20306;SDS011;10312;52.434;13.206;2024-03-23T05:49:57;3.80;;;1.13;;
20306;SDS011;10312;52.434;13.206;2024-03-23T05:52:23;8.20;;;1.35;;
20306;SDS011;10312;52.434;13.206;2024-03-23T05:54:51;3.40;;;1.17;;
20306;SDS011;10312;52.434;13.206;2024-03-23T05:57:17;6.82;;;1.30;;
20306;SDS011;10312;52.434;13.206;2024-03-23T05:59:44;5.70;;;1.45;;
20306;SDS011;10312;52.434;13.206;2024-03-23T06:02:13;4.68;;;1.00;;
20306;SDS011;10312;52.434;13.206;2024-03-23T06:04:39;8.93;;;1.20;;
20306;SDS011;10312;52.434;13.206;2024-03-23T06:07:05;5.85;;;1.50;;
20306;SDS011;10312;52.434;13.206;2024-03-23T06:09:39;3.33;;;1.60;;
20306;SDS011;10312;52.434;13.206;2024-03-23T06:12:08;6.80;;;1.90;;
20306;SDS011;10312;52.434;13.206;2024-03-23T06:14:34;8.38;;;1.40;;
20306;SDS011;10312;52.434;13.206;2024-03-23T06:17:00;6.22;;;1.83;;
20306;SDS011;10312;52.434;13.206;2024-03-23T06:19:26;7.35;;;1.65;;
20306;SDS011;10312;52.434;13.206;2024-03-23T06:21:54;7.53;;;1.48;;
20306;SDS011;10312;52.434;13.206;2024-03-23T06:24:21;5.95;;;1.58;;
20306;SDS011;10312;52.434;13.206;2024-03-23T06:26:47;5.85;;;1.40;;
20306;SDS011;10312;52.434;13.206;2024-03-23T06:29:13;5.43;;;1.25;;
20306;SDS011;10312;52.434;13.206;2024-03-23T06:31:39;6.75;;;1.83;;
20306;SDS011;10312;52.434;13.206;2024-03-23T06:34:04;5.72;;;1.67;;
20306;SDS011;10312;52.434;13.206;2024-03-23T06:36:30;7.50;;;1.80;;
20306;SDS011;10312;52.434;13.206;2024-03-23T06:38:56;7.00;;;1.40;;
20306;SDS011;10312;52.434;13.206;2024-03-23T06:41:22;8.60;;;1.75;;
20306;SDS011;10312;52.434;13.206;2024-03-23T06:43:48;3.65;;;1.20;;
20306;SDS011;10312;52.434;13.206;2024-03-23T06:46:14;6.55;;;1.15;;
20306;SDS011;10312;52.434;13.206;2024-03-23T06:48:40;5.90;;;1.30;;
20306;SDS011;10312;52.434;13.206;2024-03-23T06:51:05;5.80;;;1.27;;
20306;SDS011;10312;52.434;13.206;2024-03-23T06:53:32;8.75;;;1.45;;
20306;SDS011;10312;52.434;13.206;2024-03-23T06:55:58;8.43;;;1.30;;
20306;SDS011;10312;52.434;13.206;2024-03-23T06:58:24;3.35;;;1.00;;
20306;SDS011;10312;52.434;13.206;2024-03-23T07:00:50;8.80;;;1.35;;
20306;SDS011;10312;52.434;13.206;2024-03-23T07:03:19;9.85;;;1.70;;
20306;SDS011;10312;52.434;13.206;2024-03-23T07:05:46;7.50;;;1.52;;
20306;SDS011;10312;52.434;13.206;2024-03-23T07:08:12;6.90;;;2.13;;
20306;SDS011;10312;52.434;13.206;2024-03-23T07:10:41;6.05;;;1.55;;
20306;SDS011;10312;52.434;13.206;2024-03-23T07:13:07;9.85;;;1.38;;
20306;SDS011;10312;52.434;13.206;2024-03-23T07:15:33;7.03;;;1.42;;
20306;SDS011;10312;52.434;13.206;2024-03-23T07:18:00;7.30;;;1.80;;
20306;SDS011;10312;52.434;13.206;2024-03-23T07:20:29;8.93;;;1.83;;
20306;SDS011;10312;52.434;13.206;2024-03-23T07:22:56;9.15;;;1.63;;
20306;SDS011;10312;52.434;13.206;2024-03-23T07:25:23;6.00;;;1.50;;
20306;SDS011;10312;52.434;13.206;2024-03-23T07:27:52;6.72;;;1.40;;
20306;SDS011;10312;52.434;13.206;2024-03-23T07:30:19;8.98;;;2.30;;
20306;SDS011;10312;52.434;13.206;2024-03-23T07:32:45;6.95;;;1.40;;
20306;SDS011;10312;52.434;13.206;2024-03-23T07:35:11;8.95;;;1.60;;
20306;SDS011;10312;52.434;13.206;2024-03-23T07:37:37;5.82;;;1.33;;
20306;SDS011;10312;52.434;13.206;2024-03-23T07:40:02;9.32;;;1.67;;
20306;SDS011;10312;52.434;13.206;2024-03-23T07:42:29;8.02;;;1.55;;
20306;SDS011;10312;52.434;13.206;2024-03-23T07:44:55;6.40;;;2.40;;
20306;SDS011;10312;52.434;13.206;2024-03-23T07:47:22;7.30;;;1.77;;
20306;SDS011;10312;52.434;13.206;2024-03-23T07:49:49;6.63;;;1.60;;
20306;SDS011;10312;52.434;13.206;2024-03-23T07:52:15;5.88;;;1.50;;
20306;SDS011;10312;52.434;13.206;2024-03-23T07:54:43;6.97;;;1.85;;
20306;SDS011;10312;52.434;13.206;2024-03-23T07:57:10;6.15;;;1.75;;
20306;SDS011;10312;52.434;13.206;2024-03-23T07:59:36;7.78;;;1.65;;
20306;SDS011;10312;52.434;13.206;2024-03-23T08:02:02;7.15;;;1.77;;
20306;SDS011;10312;52.434;13.206;2024-03-23T08:04:29;6.82;;;1.52;;
20306;SDS011;10312;52.434;13.206;2024-03-23T08:06:55;5.07;;;1.42;;
20306;SDS011;10312;52.434;13.206;2024-03-23T08:09:21;7.63;;;1.85;;
20306;SDS011;10312;52.434;13.206;2024-03-23T08:11:48;7.43;;;1.75;;
20306;SDS011;10312;52.434;13.206;2024-03-23T08:14:13;4.07;;;1.25;;
20306;SDS011;10312;52.434;13.206;2024-03-23T08:16:39;8.25;;;1.63;;
20306;SDS011;10312;52.434;13.206;2024-03-23T08:19:06;4.88;;;2.03;;
20306;SDS011;10312;52.434;13.206;2024-03-23T08:21:34;4.10;;;1.45;;
20306;SDS011;10312;52.434;13.206;2024-03-23T08:24:00;5.25;;;1.33;;
20306;SDS011;10312;52.434;13.206;2024-03-23T08:26:25;7.82;;;1.50;;
20306;SDS011;10312;52.434;13.206;2024-03-23T08:28:51;10.23;;;2.10;;
20306;SDS011;10312;52.434;13.206;2024-03-23T08:31:16;5.25;;;1.20;;
20306;SDS011;10312;52.434;13.206;2024-03-23T08:33:43;7.13;;;1.25;;
20306;SDS011;10312;52.434;13.206;2024-03-23T08:36:09;5.32;;;1.30;;
20306;SDS011;10312;52.434;13.206;2024-03-23T08:38:39;10.10;;;1.77;;
20306;SDS011;10312;52.434;13.206;2024-03-23T08:41:06;4.80;;;1.40;;
20306;SDS011;10312;52.434;13.206;2024-03-23T08:43:38;4.60;;;1.33;;
20306;SDS011;10312;52.434;13.206;2024-03-23T08:46:11;4.00;;;1.38;;
20306;SDS011;10312;52.434;13.206;2024-03-23T08:48:40;3.90;;;1.80;;
20306;SDS011;10312;52.434;13.206;2024-03-23T08:51:08;5.00;;;1.40;;
20306;SDS011;10312;52.434;13.206;2024-03-23T08:53:35;4.55;;;1.33;;
20306;SDS011;10312;52.434;13.206;2024-03-23T08:56:02;4.80;;;1.35;;
20306;SDS011;10312;52.434;13.206;2024-03-23T08:58:28;5.18;;;1.23;;
20306;SDS011;10312;52.434;13.206;2024-03-23T09:00:55;5.13;;;1.30;;
20306;SDS011;10312;52.434;13.206;2024-03-23T09:03:25;2.33;;;0.88;;
20306;SDS011;10312;52.434;13.206;2024-03-23T09:05:51;3.53;;;0.85;;
20306;SDS011;10312;52.434;13.206;2024-03-23T09:08:18;5.38;;;0.70;;
20306;SDS011;10312;52.434;13.206;2024-03-23T09:10:44;2.85;;;0.70;;
20306;SDS011;10312;52.434;13.206;2024-03-23T09:13:10;5.57;;;1.27;;
20306;SDS011;10312;52.434;13.206;2024-03-23T09:15:36;6.70;;;1.73;;
20306;SDS011;10312;52.434;13.206;2024-03-23T09:18:03;6.22;;;1.20;;
20306;SDS011;10312;52.434;13.206;2024-03-23T09:20:29;4.43;;;1.05;;
20306;SDS011;10312;52.434;13.206;2024-03-23T09:22:54;5.68;;;0.85;;
20306;SDS011;10312;52.434;13.206;2024-03-23T09:25:20;3.25;;;1.27;;
20306;SDS011;10312;52.434;13.206;2024-03-23T09:27:49;3.65;;;1.20;;
20306;SDS011;10312;52.434;13.206;2024-03-23T09:30:15;6.15;;;1.05;;
20306;SDS011;10312;52.434;13.206;2024-03-23T09:32:43;4.63;;;1.20;;
20306;SDS011;10312;52.434;13.206;2024-03-23T09:35:10;9.35;;;1.65;;
20306;SDS011;10312;52.434;13.206;2024-03-23T09:37:36;4.03;;;1.08;;
20306;SDS011;10312;52.434;13.206;2024-03-23T09:40:02;6.13;;;1.05;;
20306;SDS011;10312;52.434;13.206;2024-03-23T09:42:29;5.65;;;1.23;;
20306;SDS011;10312;52.434;13.206;2024-03-23T09:44:56;5.72;;;1.30;;
20306;SDS011;10312;52.434;13.206;2024-03-23T09:47:24;5.50;;;1.23;;
20306;SDS011;10312;52.434;13.206;2024-03-23T09:49:50;3.33;;;1.08;;
20306;SDS011;10312;52.434;13.206;2024-03-23T09:52:17;5.93;;;1.05;;
20306;SDS011;10312;52.434;13.206;2024-03-23T09:54:43;7.05;;;1.88;;
20306;SDS011;10312;52.434;13.206;2024-03-23T09:57:09;8.30;;;1.40;;
20306;SDS011;10312;52.434;13.206;2024-03-23T09:59:34;7.03;;;1.08;;
20306;SDS011;10312;52.434;13.206;2024-03-23T10:02:01;7.45;;;2.75;;
20306;SDS011;10312;52.434;13.206;2024-03-23T10:04:36;5.82;;;1.00;;
20306;SDS011;10312;52.434;13.206;2024-03-23T10:07:10;5.65;;;1.17;;
20306;SDS011;10312;52.434;13.206;2024-03-23T10:09:37;4.82;;;1.13;;
20306;SDS011;10312;52.434;13.206;2024-03-23T10:12:16;4.22;;;1.08;;
20306;SDS011;10312;52.434;13.206;2024-03-23T10:14:46;4.05;;;1.15;;
20306;SDS011;10312;52.434;13.206;2024-03-23T10:17:19;6.22;;;1.15;;
20306;SDS011;10312;52.434;13.206;2024-03-23T10:19:49;7.32;;;1.52;;
20306;SDS011;10312;52.434;13.206;2024-03-23T10:22:20;3.05;;;1.00;;
20306;SDS011;10312;52.434;13.206;2024-03-23T10:24:46;9.80;;;1.73;;
20306;SDS011;10312;52.434;13.206;2024-03-23T10:27:19;7.60;;;1.35;;
20306;SDS011;10312;52.434;13.206;2024-03-23T10:29:46;5.13;;;1.25;;
20306;SDS011;10312;52.434;13.206;2024-03-23T10:32:12;7.07;;;1.27;;
20306;SDS011;10312;52.434;13.206;2024-03-23T10:34:39;9.25;;;1.20;;
20306;SDS011;10312;52.434;13.206;2024-03-23T10:37:05;6.53;;;1.15;;
20306;SDS011;10312;52.434;13.206;2024-03-23T10:39:35;7.50;;;1.20;;
20306;SDS011;10312;52.434;13.206;2024-03-23T10:42:04;5.10;;;1.30;;
20306;SDS011;10312;52.434;13.206;2024-03-23T10:44:31;4.43;;;0.93;;
20306;SDS011;10312;52.434;13.206;2024-03-23T10:46:58;5.22;;;1.77;;
20306;SDS011;10312;52.434;13.206;2024-03-23T10:49:25;8.60;;;1.38;;
20306;SDS011;10312;52.434;13.206;2024-03-23T10:51:52;5.80;;;1.63;;
20306;SDS011;10312;52.434;13.206;2024-03-23T10:54:18;8.60;;;1.55;;
20306;SDS011;10312;52.434;13.206;2024-03-23T10:56:44;4.00;;;0.95;;
20306;SDS011;10312;52.434;13.206;2024-03-23T10:59:11;7.22;;;1.30;;
20306;SDS011;10312;52.434;13.206;2024-03-23T11:01:53;4.47;;;1.40;;
20306;SDS011;10312;52.434;13.206;2024-03-23T11:04:30;6.97;;;2.00;;
20306;SDS011;10312;52.434;13.206;2024-03-23T11:07:00;7.38;;;1.95;;
20306;SDS011;10312;52.434;13.206;2024-03-23T11:12:36;6.65;;;1.45;;
20306;SDS011;10312;52.434;13.206;2024-03-23T11:14:58;6.45;;;1.40;;
20306;SDS011;10312;52.434;13.206;2024-03-23T11:17:26;6.43;;;1.30;;
20306;SDS011;10312;52.434;13.206;2024-03-23T11:19:56;8.75;;;1.30;;
20306;SDS011;10312;52.434;13.206;2024-03-23T11:22:37;12.40;;;1.77;;
20306;SDS011;10312;52.434;13.206;2024-03-23T11:25:19;5.75;;;1.10;;
20306;SDS011;10312;52.434;13.206;2024-03-23T11:27:48;4.60;;;1.25;;
20306;SDS011;10312;52.434;13.206;2024-03-23T11:30:17;5.80;;;1.80;;
20306;SDS011;10312;52.434;13.206;2024-03-23T11:32:51;8.00;;;1.88;;
20306;SDS011;10312;52.434;13.206;2024-03-23T11:35:32;7.40;;;1.45;;
20306;SDS011;10312;52.434;13.206;2024-03-23T11:38:03;7.97;;;1.50;;
20306;SDS011;10312;52.434;13.206;2024-03-23T11:40:45;8.50;;;1.83;;
20306;SDS011;10312;52.434;13.206;2024-03-23T11:43:15;8.15;;;1.70;;
20306;SDS011;10312;52.434;13.206;2024-03-23T11:45:51;6.38;;;1.50;;
20306;SDS011;10312;52.434;13.206;2024-03-23T11:48:20;5.65;;;1.35;;
20306;SDS011;10312;52.434;13.206;2024-03-23T11:50:47;7.47;;;1.65;;
20306;SDS011;10312;52.434;13.206;2024-03-23T11:55:47;9.70;;;1.65;;
20306;SDS011;10312;52.434;13.206;2024-03-23T11:58:20;6.53;;;1.52;;
20306;SDS011;10312;52.434;13.206;2024-03-23T12:00:59;10.10;;;1.55;;
20306;SDS011;10312;52.434;13.206;2024-03-23T12:03:29;9.90;;;1.70;;
20306;SDS011;10312;52.434;13.206;2024-03-23T12:05:56;6.47;;;1.52;;
20306;SDS011;10312;52.434;13.206;2024-03-23T12:08:23;10.23;;;1.60;;
20306;SDS011;10312;52.434;13.206;2024-03-23T12:10:51;7.43;;;1.48;;
20306;SDS011;10312;52.434;13.206;2024-03-23T12:13:18;10.40;;;1.92;;
20306;SDS011;10312;52.434;13.206;2024-03-23T12:15:45;8.55;;;1.77;;
20306;SDS011;10312;52.434;13.206;2024-03-23T12:18:11;4.68;;;2.35;;
20306;SDS011;10312;52.434;13.206;2024-03-23T12:20:38;7.93;;;1.80;;
20306;SDS011;10312;52.434;13.206;2024-03-23T12:25:35;7.95;;;1.67;;
20306;SDS011;10312;52.434;13.206;2024-03-23T12:28:01;8.35;;;1.80;;
20306;SDS011;10312;52.434;13.206;2024-03-23T12:30:27;5.93;;;1.80;;
20306;SDS011;10312;52.434;13.206;2024-03-23T12:32:53;3.90;;;1.20;;
20306;SDS011;10312;52.434;13.206;2024-03-23T12:35:19;5.75;;;1.35;;
20306;SDS011;10312;52.434;13.206;2024-03-23T12:37:48;9.00;;;1.70;;
20306;SDS011;10312;52.434;13.206;2024-03-23T12:40:14;6.05;;;1.30;;
20306;SDS011;10312;52.434;13.206;2024-03-23T12:42:39;6.25;;;1.55;;
20306;SDS011;10312;52.434;13.206;2024-03-23T12:45:05;6.72;;;1.60;;
20306;SDS011;10312;52.434;13.206;2024-03-23T12:47:31;7.00;;;1.65;;
20306;SDS011;10312;52.434;13.206;2024-03-23T12:49:57;6.95;;;1.65;;
20306;SDS011;10312;52.434;13.206;2024-03-23T12:52:22;3.55;;;1.10;;
20306;SDS011;10312;52.434;13.206;2024-03-23T12:54:54;5.88;;;1.42;;
20306;SDS011;10312;52.434;13.206;2024-03-23T12:57:22;6.55;;;1.83;;
20306;SDS011;10312;52.434;13.206;2024-03-23T12:59:50;5.80;;;1.20;;
20306;SDS011;10312;52.434;13.206;2024-03-23T13:02:18;7.15;;;1.58;;
20306;SDS011;10312;52.434;13.206;2024-03-23T13:04:45;8.32;;;1.67;;
20306;SDS011;10312;52.434;13.206;2024-03-23T13:07:12;7.32;;;1.48;;
20306;SDS011;10312;52.434;13.206;2024-03-23T13:09:38;5.00;;;1.20;;
20306;SDS011;10312;52.434;13.206;2024-03-23T13:12:03;5.35;;;1.17;;
20306;SDS011;10312;52.434;13.206;2024-03-23T13:14:29;6.60;;;1.88;;
20306;SDS011;10312;52.434;13.206;2024-03-23T13:16:55;8.10;;;1.65;;
20306;SDS011;10312;52.434;13.206;2024-03-23T13:19:20;10.52;;;2.53;;
20306;SDS011;10312;52.434;13.206;2024-03-23T13:21:50;5.45;;;1.50;;
20306;SDS011;10312;52.434;13.206;2024-03-23T13:24:16;6.18;;;1.65;;
20306;SDS011;10312;52.434;13.206;2024-03-23T13:26:41;11.20;;;1.58;;
20306;SDS011;10312;52.434;13.206;2024-03-23T13:29:07;6.18;;;1.58;;
20306;SDS011;10312;52.434;13.206;2024-03-23T13:31:33;4.88;;;1.40;;
20306;SDS011;10312;52.434;13.206;2024-03-23T13:33:59;6.00;;;1.70;;
20306;SDS011;10312;52.434;13.206;2024-03-23T13:36:25;6.25;;;1.80;;
20306;SDS011;10312;52.434;13.206;2024-03-23T13:38:51;7.80;;;1.92;;
20306;SDS011;10312;52.434;13.206;2024-03-23T13:41:16;11.65;;;2.17;;
20306;SDS011;10312;52.434;13.206;2024-03-23T13:43:42;7.13;;;2.00;;
20306;SDS011;10312;52.434;13.206;2024-03-23T13:46:08;7.85;;;1.95;;
20306;SDS011;10312;52.434;13.206;2024-03-23T13:48:34;8.05;;;1.77;;
20306;SDS011;10312;52.434;13.206;2024-03-23T13:51:00;10.43;;;1.92;;
20306;SDS011;10312;52.434;13.206;2024-03-23T13:53:26;11.93;;;1.92;;
20306;SDS011;10312;52.434;13.206;2024-03-23T13:55:52;8.30;;;1.90;;
20306;SDS011;10312;52.434;13.206;2024-03-23T13:58:18;6.53;;;1.60;;
20306;SDS011;10312;52.434;13.206;2024-03-23T14:00:44;8.40;;;2.00;;
20306;SDS011;10312;52.434;13.206;2024-03-23T14:03:10;7.88;;;1.88;;
20306;SDS011;10312;52.434;13.206;2024-03-23T14:05:37;4.45;;;1.73;;
20306;SDS011;10312;52.434;13.206;2024-03-23T14:08:07;9.05;;;1.85;;
20306;SDS011;10312;52.434;13.206;2024-03-23T14:10:33;7.13;;;1.88;;
20306;SDS011;10312;52.434;13.206;2024-03-23T14:12:59;9.18;;;1.80;;
20306;SDS011;10312;52.434;13.206;2024-03-23T14:15:28;8.75;;;2.25;;
20306;SDS011;10312;52.434;13.206;2024-03-23T14:17:53;9.40;;;1.95;;
20306;SDS011;10312;52.434;13.206;2024-03-23T14:20:22;8.55;;;2.33;;
20306;SDS011;10312;52.434;13.206;2024-03-23T14:22:48;11.85;;;3.03;;
20306;SDS011;10312;52.434;13.206;2024-03-23T14:25:14;7.72;;;2.25;;
20306;SDS011;10312;52.434;13.206;2024-03-23T14:27:40;9.27;;;2.53;;
20306;SDS011;10312;52.434;13.206;2024-03-23T14:30:06;10.63;;;2.90;;
20306;SDS011;10312;52.434;13.206;2024-03-23T14:32:35;9.32;;;2.78;;
20306;SDS011;10312;52.434;13.206;2024-03-23T14:35:02;8.00;;;2.70;;
20306;SDS011;10312;52.434;13.206;2024-03-23T14:37:29;9.45;;;3.03;;
20306;SDS011;10312;52.434;13.206;2024-03-23T14:39:58;10.85;;;3.13;;
20306;SDS011;10312;52.434;13.206;2024-03-23T14:42:27;9.40;;;3.00;;
20306;SDS011;10312;52.434;13.206;2024-03-23T14:44:53;5.20;;;1.77;;
20306;SDS011;10312;52.434;13.206;2024-03-23T14:47:19;3.25;;;1.30;;
20306;SDS011;10312;52.434;13.206;2024-03-23T14:49:45;6.53;;;2.70;;
20306;SDS011;10312;52.434;13.206;2024-03-23T14:52:16;7.95;;;3.20;;
20306;SDS011;10312;52.434;13.206;2024-03-23T14:54:42;3.63;;;1.48;;
20306;SDS011;10312;52.434;13.206;2024-03-23T14:57:09;3.67;;;1.55;;
20306;SDS011;10312;52.434;13.206;2024-03-23T14:59:35;6.65;;;1.52;;
20306;SDS011;10312;52.434;13.206;2024-03-23T15:02:03;4.88;;;1.77;;
20306;SDS011;10312;52.434;13.206;2024-03-23T15:04:33;5.18;;;1.67;;
20306;SDS011;10312;52.434;13.206;2024-03-23T15:06:59;5.20;;;1.42;;
20306;SDS011;10312;52.434;13.206;2024-03-23T15:09:25;5.38;;;1.33;;
20306;SDS011;10312;52.434;13.206;2024-03-23T15:11:50;3.40;;;1.30;;
20306;SDS011;10312;52.434;13.206;2024-03-23T15:14:16;4.35;;;1.20;;
20306;SDS011;10312;52.434;13.206;2024-03-23T15:16:42;4.45;;;1.50;;
20306;SDS011;10312;52.434;13.206;2024-03-23T15:19:08;5.03;;;1.45;;
20306;SDS011;10312;52.434;13.206;2024-03-23T15:21:34;7.35;;;1.50;;
20306;SDS011;10312;52.434;13.206;2024-03-23T15:23:59;5.50;;;1.98;;
20306;SDS011;10312;52.434;13.206;2024-03-23T15:26:25;5.88;;;1.60;;
20306;SDS011;10312;52.434;13.206;2024-03-23T15:28:51;5.82;;;1.55;;
20306;SDS011;10312;52.434;13.206;2024-03-23T15:31:24;4.03;;;1.45;;